createdAt,value
2022-10-23T00:00:34.099Z,25
2022-10-23T00:01:35.988Z,27
2022-10-23T00:02:38.049Z,25
2022-10-23T00:03:39.983Z,24
2022-10-23T00:04:42.023Z,23
2022-10-23T00:05:44.083Z,23
2022-10-23T00:06:46.063Z,23
2022-10-23T00:07:48.023Z,24
2022-10-23T00:08:50.584Z,25
2022-10-23T00:09:52.204Z,26
2022-10-23T00:10:53.984Z,26
2022-10-23T00:11:56.223Z,26
2022-10-23T00:12:58.163Z,27
2022-10-23T00:13:59.943Z,27
2022-10-23T00:15:02.088Z,27
2022-10-23T00:16:04.084Z,28
2022-10-23T00:17:06.043Z,27
2022-10-23T00:18:08.043Z,28
2022-10-23T00:19:10.526Z,28
2022-10-23T00:20:12.043Z,29
2022-10-23T00:21:13.963Z,28
2022-10-23T00:22:16.043Z,27
2022-10-23T00:23:18.163Z,28
2022-10-23T00:24:20.247Z,27
2022-10-23T00:25:22.602Z,26
2022-10-23T00:26:24.106Z,27
2022-10-23T00:27:26.747Z,25
2022-10-23T00:28:28.003Z,27
2022-10-23T00:29:29.981Z,26
2022-10-23T00:30:32.067Z,25
2022-10-23T00:31:34.023Z,25
2022-10-23T00:32:36.184Z,25
2022-10-23T00:33:38.003Z,25
2022-10-23T00:34:39.984Z,25
2022-10-23T00:35:42.464Z,25
2022-10-23T00:36:44.043Z,25
2022-10-23T00:37:46.104Z,24
2022-10-23T00:38:48.483Z,24
2022-10-23T00:39:50.084Z,26
2022-10-23T00:40:52.130Z,25
2022-10-23T00:41:54.043Z,25
2022-10-23T00:42:56.063Z,25
2022-10-23T00:43:58.162Z,26
2022-10-23T00:44:59.983Z,25
2022-10-23T00:46:02.090Z,26
2022-10-23T00:47:04.065Z,25
2022-10-23T00:48:06.044Z,25
2022-10-23T00:49:08.165Z,25
2022-10-23T00:50:10.022Z,25
2022-10-23T00:51:11.986Z,25
2022-10-23T00:52:14.003Z,24
2022-10-23T00:53:17.265Z,24
2022-10-23T00:54:23.796Z,23
2022-10-23T00:55:21.003Z,23
2022-10-23T00:56:22.905Z,24
2022-10-23T00:57:25.061Z,23
2022-10-23T00:58:27.313Z,24
2022-10-23T00:59:29.002Z,23
2022-10-23T01:00:31.164Z,23
2022-10-23T01:01:33.231Z,24
2022-10-23T01:02:35.237Z,23
2022-10-23T01:03:37.036Z,23
2022-10-23T01:04:39.083Z,22
2022-10-23T01:05:41.076Z,20
2022-10-23T01:06:43.023Z,20
2022-10-23T01:07:45.522Z,24
2022-10-23T01:08:47.147Z,24
2022-10-23T01:09:49.082Z,24
2022-10-23T01:10:51.002Z,24
2022-10-23T01:11:53.403Z,24
2022-10-23T01:12:55.287Z,23
2022-10-23T01:13:57.086Z,20
2022-10-23T01:14:59.322Z,19
2022-10-23T01:16:01.365Z,20
2022-10-23T01:17:03.132Z,19
2022-10-23T01:18:05.382Z,20
2022-10-23T01:19:07.604Z,20
2022-10-23T01:20:09.063Z,20
2022-10-23T01:21:11.110Z,19
2022-10-23T01:22:13.346Z,20
2022-10-23T01:23:15.042Z,22
2022-10-23T01:24:17.084Z,23
2022-10-23T01:25:19.104Z,24
2022-10-23T01:26:21.326Z,25
2022-10-23T01:27:23.163Z,23
2022-10-23T01:28:25.942Z,23
2022-10-23T01:29:28.203Z,23
2022-10-23T01:30:30.313Z,24
2022-10-23T01:31:32.101Z,23
2022-10-23T01:32:34.047Z,23
2022-10-23T01:33:35.983Z,26
2022-10-23T01:34:38.003Z,25
2022-10-23T01:35:40.022Z,25
2022-10-23T01:36:42.103Z,25
2022-10-23T01:37:44.085Z,26
2022-10-23T01:38:46.283Z,25
2022-10-23T01:39:48.183Z,26
2022-10-23T01:40:50.273Z,27
2022-10-23T01:41:52.584Z,27
2022-10-23T01:42:54.064Z,25
2022-10-23T01:43:56.022Z,25
2022-10-23T01:44:58.345Z,25
2022-10-23T01:46:00.214Z,23
2022-10-23T01:47:02.102Z,23
2022-10-23T01:48:03.987Z,25
2022-10-23T01:49:06.115Z,26
2022-10-23T01:50:08.023Z,27
2022-10-23T01:51:10.282Z,31
2022-10-23T01:52:12.042Z,29
2022-10-23T01:53:14.028Z,29
2022-10-23T01:54:16.317Z,30
2022-10-23T01:55:18.222Z,30
2022-10-23T01:56:20.145Z,30
2022-10-23T01:57:22.222Z,30
2022-10-23T01:58:24.062Z,30
2022-10-23T01:59:26.122Z,29
2022-10-23T02:00:28.122Z,29
2022-10-23T02:04:28.078Z,28
2022-10-23T02:05:30.039Z,29
2022-10-23T02:06:32.077Z,27
2022-10-23T02:07:34.096Z,28
2022-10-23T02:08:36.355Z,26
2022-10-23T02:09:38.135Z,26
2022-10-23T02:10:40.094Z,26
2022-10-23T02:11:42.075Z,26
2022-10-23T02:12:44.055Z,26
2022-10-23T02:13:46.135Z,26
2022-10-23T02:14:48.117Z,26
2022-10-23T02:15:50.037Z,26
2022-10-23T02:16:52.056Z,26
2022-10-23T02:17:54.116Z,25
2022-10-23T02:18:56.174Z,26
2022-10-23T02:19:58.519Z,26
2022-10-23T02:21:00.195Z,26
2022-10-23T02:22:02.294Z,26
2022-10-23T02:23:04.075Z,26
2022-10-23T02:24:06.135Z,26
2022-10-23T02:25:08.095Z,26
2022-10-23T02:26:10.054Z,25
2022-10-23T02:27:12.235Z,25
2022-10-23T02:28:14.155Z,25
2022-10-23T02:29:16.115Z,26
2022-10-23T02:30:18.144Z,25
2022-10-23T02:31:20.158Z,25
2022-10-23T02:32:22.436Z,25
2022-10-23T02:33:24.036Z,26
2022-10-23T02:34:26.143Z,26
2022-10-23T02:35:28.098Z,26
2022-10-23T02:36:30.034Z,25
2022-10-23T02:37:32.157Z,25
2022-10-23T02:38:34.094Z,25
2022-10-23T02:39:36.081Z,25
2022-10-23T02:40:38.135Z,25
2022-10-23T02:41:40.341Z,25
2022-10-23T02:42:42.095Z,25
2022-10-23T02:43:44.094Z,25
2022-10-23T02:44:46.095Z,24
2022-10-23T02:45:48.037Z,24
2022-10-23T02:46:50.496Z,23
2022-10-23T02:47:52.095Z,23
2022-10-23T02:48:54.014Z,23
2022-10-23T02:49:55.066Z,23
2022-10-23T02:50:57.143Z,23
2022-10-23T02:51:59.195Z,23
2022-10-23T02:53:01.096Z,24
2022-10-23T02:54:03.075Z,24
2022-10-23T02:55:05.196Z,23
2022-10-23T02:56:07.115Z,22
2022-10-23T02:57:09.096Z,22
2022-10-23T02:58:11.134Z,22
2022-10-23T02:59:13.216Z,22
2022-10-23T03:00:15.567Z,22
2022-10-23T03:01:17.237Z,22
2022-10-23T03:02:19.276Z,20
2022-10-23T03:03:21.034Z,20
2022-10-23T03:04:23.014Z,22
2022-10-23T03:05:25.115Z,22
2022-10-23T03:06:27.102Z,20
2022-10-23T03:07:29.074Z,22
2022-10-23T03:08:31.135Z,20
2022-10-23T03:09:33.157Z,20
2022-10-23T03:10:35.167Z,20
2022-10-23T03:11:37.155Z,20
2022-10-23T03:12:39.196Z,20
2022-10-23T03:13:41.095Z,20
2022-10-23T03:14:43.075Z,20
2022-10-23T03:15:45.095Z,20
2022-10-23T03:16:47.095Z,19
2022-10-23T03:17:49.075Z,19
2022-10-23T03:18:51.078Z,18
2022-10-23T03:19:53.220Z,18
2022-10-23T03:20:55.097Z,18
2022-10-23T03:21:57.300Z,19
2022-10-23T03:22:59.399Z,19
2022-10-23T03:24:01.457Z,18
2022-10-23T03:25:03.375Z,18
2022-10-23T03:26:05.076Z,18
2022-10-23T03:27:07.094Z,18
2022-10-23T03:28:09.097Z,19
2022-10-23T03:29:11.415Z,18
2022-10-23T03:30:13.376Z,18
2022-10-23T03:31:15.155Z,17
2022-10-23T03:32:17.114Z,17
2022-10-23T03:33:19.375Z,16
2022-10-23T03:34:21.214Z,16
2022-10-23T03:35:23.057Z,16
2022-10-23T03:36:25.267Z,16
2022-10-23T03:37:27.100Z,17
2022-10-23T03:38:29.135Z,16
2022-10-23T03:39:31.154Z,16
2022-10-23T03:40:33.115Z,17
2022-10-23T03:41:35.135Z,17
2022-10-23T03:42:37.215Z,17
2022-10-23T03:43:39.256Z,16
2022-10-23T03:44:42.136Z,16
2022-10-23T03:45:44.114Z,17
2022-10-23T03:46:46.495Z,16
2022-10-23T03:47:48.275Z,16
2022-10-23T03:48:50.315Z,16
2022-10-23T03:49:52.316Z,16
2022-10-23T03:50:54.094Z,15
2022-10-23T03:51:56.256Z,15
2022-10-23T03:52:58.440Z,15
2022-10-23T03:54:00.154Z,15
2022-10-23T03:55:02.155Z,14
2022-10-23T03:56:04.115Z,15
2022-10-23T03:57:07.394Z,15
2022-10-23T03:58:09.154Z,14
2022-10-23T03:59:11.274Z,15
2022-10-23T04:00:13.158Z,14
2022-10-23T04:01:15.209Z,14
2022-10-23T04:02:17.214Z,15
2022-10-23T04:03:19.590Z,15
2022-10-23T04:04:21.114Z,15
2022-10-23T04:05:23.095Z,15
2022-10-23T04:06:25.137Z,15
2022-10-23T04:07:27.218Z,14
2022-10-23T04:08:29.138Z,15
2022-10-23T04:09:31.503Z,15
2022-10-23T04:10:33.135Z,15
2022-10-23T04:11:35.114Z,16
2022-10-23T04:12:37.156Z,18
2022-10-23T04:13:39.319Z,18
2022-10-23T04:14:41.637Z,18
2022-10-23T04:15:43.456Z,18
2022-10-23T04:16:45.134Z,17
2022-10-23T04:17:47.223Z,17
2022-10-23T04:18:49.176Z,19
2022-10-23T04:19:51.174Z,18
2022-10-23T04:20:53.226Z,18
2022-10-23T04:21:55.075Z,19
2022-10-23T04:22:57.416Z,19
2022-10-23T04:24:00.198Z,19
2022-10-23T04:25:02.195Z,20
2022-10-23T04:26:04.215Z,20
2022-10-23T04:27:06.275Z,20
2022-10-23T04:28:08.134Z,20
2022-10-23T04:29:10.175Z,20
2022-10-23T04:30:12.194Z,22
2022-10-23T04:31:14.134Z,20
2022-10-23T04:32:16.336Z,20
2022-10-23T04:33:18.243Z,22
2022-10-23T04:34:20.196Z,22
2022-10-23T04:35:22.374Z,22
2022-10-23T04:36:24.588Z,23
2022-10-23T04:37:26.316Z,23
2022-10-23T04:38:28.214Z,23
2022-10-23T04:39:30.141Z,22
2022-10-23T04:40:32.215Z,23
2022-10-23T04:41:34.575Z,22
2022-10-23T04:42:36.605Z,22
2022-10-23T04:43:38.495Z,22
2022-10-23T04:44:40.095Z,22
2022-10-23T04:45:42.174Z,22
2022-10-23T04:46:44.454Z,20
2022-10-23T04:47:46.815Z,20
2022-10-23T04:48:48.106Z,20
2022-10-23T04:49:50.175Z,19
2022-10-23T04:50:52.277Z,20
2022-10-23T04:51:54.174Z,19
2022-10-23T04:52:56.197Z,20
2022-10-23T04:53:58.359Z,20
2022-10-23T04:55:00.123Z,22
2022-10-23T04:56:03.123Z,22
2022-10-23T04:57:06.446Z,20
2022-10-23T04:58:08.214Z,19
2022-10-23T04:59:10.150Z,19
2022-10-23T05:00:12.107Z,19
2022-10-23T05:01:14.260Z,22
2022-10-23T05:02:16.479Z,20
2022-10-23T05:03:18.197Z,19
2022-10-23T05:04:20.436Z,19
2022-10-23T05:05:22.615Z,20
2022-10-23T05:06:24.195Z,20
2022-10-23T05:07:26.357Z,20
2022-10-23T05:08:28.215Z,20
2022-10-23T05:09:30.431Z,20
2022-10-23T05:10:32.412Z,20
2022-10-23T05:11:34.114Z,20
2022-10-23T05:12:36.184Z,20
2022-10-23T05:13:38.300Z,20
2022-10-23T05:14:40.370Z,19
2022-10-23T05:16:45.196Z,19
2022-10-23T05:17:47.863Z,19
2022-10-23T05:18:49.171Z,19
2022-10-23T05:19:51.516Z,19
2022-10-23T05:20:53.743Z,18
2022-10-23T05:21:55.177Z,19
2022-10-23T05:22:57.171Z,18
2022-10-23T05:25:01.354Z,18
2022-10-23T05:26:03.516Z,19
2022-10-23T05:27:05.334Z,19
2022-10-23T05:28:07.337Z,19
2022-10-23T05:29:09.155Z,19
2022-10-23T05:30:11.154Z,19
2022-10-23T05:31:13.335Z,20
2022-10-23T05:32:15.322Z,19
2022-10-23T05:33:17.157Z,19
2022-10-23T05:34:19.130Z,20
2022-10-23T05:35:21.475Z,20
2022-10-23T05:36:23.185Z,19
2022-10-23T05:37:25.175Z,19
2022-10-23T05:38:27.162Z,19
2022-10-23T05:39:29.135Z,-1
2022-10-23T05:40:31.205Z,18
2022-10-23T05:41:33.319Z,18
2022-10-23T05:42:37.109Z,17
2022-10-23T05:43:37.168Z,18
2022-10-23T05:44:39.917Z,18
2022-10-23T05:45:41.239Z,17
2022-10-23T05:46:43.635Z,17
2022-10-23T05:47:45.167Z,17
2022-10-23T05:48:47.311Z,17
2022-10-23T05:49:49.200Z,16
2022-10-23T05:50:51.335Z,16
2022-10-23T05:51:53.635Z,16
2022-10-23T05:52:55.266Z,17
2022-10-23T05:53:57.123Z,18
2022-10-23T05:54:59.235Z,19
2022-10-23T05:56:01.253Z,19
2022-10-23T05:57:03.526Z,19
2022-10-23T05:58:05.215Z,19
2022-10-23T05:59:07.132Z,19
2022-10-23T06:00:09.674Z,19
2022-10-23T06:01:11.325Z,19
2022-10-23T06:02:13.328Z,20
2022-10-23T06:03:15.616Z,20
2022-10-23T06:04:17.316Z,20
2022-10-23T06:05:19.491Z,20
2022-10-23T06:06:21.194Z,20
2022-10-23T06:07:23.215Z,22
2022-10-23T06:08:25.675Z,22
2022-10-23T06:09:27.355Z,22
2022-10-23T06:10:29.248Z,23
2022-10-23T06:11:31.254Z,20
2022-10-23T06:12:33.218Z,20
2022-10-23T06:13:35.284Z,20
2022-10-23T06:14:37.836Z,22
2022-10-23T06:15:39.815Z,20
2022-10-23T06:16:41.197Z,20
2022-10-23T06:17:43.647Z,19
2022-10-23T06:18:45.695Z,20
2022-10-23T06:19:47.175Z,19
2022-10-23T06:20:49.147Z,18
2022-10-23T06:21:51.271Z,17
2022-10-23T06:22:53.326Z,18
2022-10-23T06:23:55.296Z,17
2022-10-23T06:24:57.254Z,17
2022-10-23T06:25:59.798Z,18
2022-10-23T06:27:01.234Z,18
2022-10-23T06:28:03.740Z,19
2022-10-23T06:29:06.015Z,19
2022-10-23T06:30:07.378Z,19
2022-10-23T06:31:09.275Z,19
2022-10-23T06:32:11.215Z,19
2022-10-23T06:33:13.315Z,19
2022-10-23T06:34:15.375Z,20
2022-10-23T06:35:17.579Z,19
2022-10-23T06:36:19.215Z,20
2022-10-23T06:37:21.159Z,20
2022-10-23T06:38:23.493Z,20
2022-10-23T06:39:27.262Z,22
2022-10-23T06:40:27.314Z,22
2022-10-23T06:41:29.307Z,22
2022-10-23T06:42:31.215Z,22
2022-10-23T06:43:33.322Z,23
2022-10-23T06:44:35.122Z,23
2022-10-23T06:45:37.255Z,22
2022-10-23T06:46:39.235Z,23
2022-10-23T06:47:41.473Z,22
2022-10-23T06:48:43.574Z,23
2022-10-23T06:49:45.195Z,22
2022-10-23T06:50:47.295Z,22
2022-10-23T06:51:49.235Z,23
2022-10-23T06:52:51.197Z,24
2022-10-23T06:53:53.165Z,24
2022-10-23T06:54:55.255Z,23
2022-10-23T06:55:57.196Z,23
2022-10-23T06:56:59.314Z,23
2022-10-23T06:58:01.395Z,23
2022-10-23T06:59:03.320Z,22
2022-10-23T07:00:05.295Z,22
2022-10-23T07:01:07.304Z,23
2022-10-23T07:02:09.236Z,22
2022-10-23T07:03:11.736Z,22
2022-10-23T07:04:13.215Z,23
2022-10-23T07:05:15.274Z,23
2022-10-23T07:06:17.216Z,24
2022-10-23T07:07:19.175Z,24
2022-10-23T07:08:21.276Z,24
2022-10-23T07:09:23.335Z,25
2022-10-23T07:10:25.276Z,24
2022-10-23T07:11:27.155Z,23
2022-10-23T07:12:29.155Z,22
2022-10-23T07:13:31.479Z,22
2022-10-23T07:14:33.320Z,20
2022-10-23T07:15:35.315Z,20
2022-10-23T07:16:38.051Z,20
2022-10-23T07:17:39.255Z,19
2022-10-23T07:18:41.216Z,20
2022-10-23T07:19:43.234Z,20
2022-10-23T07:20:45.203Z,18
2022-10-23T07:21:47.316Z,18
2022-10-23T07:23:04.295Z,17
2022-10-23T07:24:06.257Z,17
2022-10-23T07:25:08.168Z,16
2022-10-23T07:26:10.263Z,15
2022-10-23T07:27:12.314Z,15
2022-10-23T07:28:14.275Z,16
2022-10-23T07:29:16.235Z,15
2022-10-23T07:30:18.238Z,15
2022-10-23T07:31:23.059Z,15
2022-10-23T07:32:22.793Z,14
2022-10-23T07:33:24.235Z,14
2022-10-23T07:34:26.315Z,15
2022-10-23T07:35:28.317Z,15
2022-10-23T07:36:30.275Z,15
2022-10-23T07:37:32.217Z,15
2022-10-23T07:38:34.196Z,16
2022-10-23T07:39:36.295Z,15
2022-10-23T07:40:38.275Z,16
2022-10-23T07:41:40.475Z,17
2022-10-23T07:42:42.150Z,16
2022-10-23T07:43:43.256Z,17
2022-10-23T07:44:45.255Z,17
2022-10-23T07:45:47.260Z,16
2022-10-23T07:46:49.253Z,16
2022-10-23T07:47:51.235Z,16
2022-10-23T07:48:53.435Z,16
2022-10-23T07:49:55.494Z,15
2022-10-23T07:50:57.414Z,15
2022-10-23T07:51:59.375Z,15
2022-10-23T07:53:01.271Z,15
2022-10-23T07:54:03.238Z,15
2022-10-23T07:55:06.276Z,14
2022-10-23T07:56:08.275Z,14
2022-10-23T07:57:10.377Z,14
2022-10-23T07:58:12.164Z,13
2022-10-23T07:59:14.233Z,13
2022-10-23T08:00:16.320Z,13
2022-10-23T08:01:18.550Z,13
2022-10-23T08:02:20.819Z,14
2022-10-23T08:03:22.837Z,14
2022-10-23T08:04:24.299Z,13
2022-10-23T08:05:26.245Z,13
2022-10-23T08:06:28.295Z,13
2022-10-23T08:07:30.398Z,12
2022-10-23T08:08:32.334Z,12
2022-10-23T08:09:34.216Z,11
2022-10-23T08:10:36.276Z,11
2022-10-23T08:11:38.288Z,11
2022-10-23T08:12:40.312Z,11
2022-10-23T08:13:42.162Z,11
2022-10-23T08:14:44.297Z,11
2022-10-23T08:15:46.295Z,11
2022-10-23T08:16:48.333Z,11
2022-10-23T08:17:50.295Z,11
2022-10-23T08:18:52.391Z,9
2022-10-23T08:19:54.295Z,9
2022-10-23T08:20:56.293Z,9
2022-10-23T08:21:58.154Z,9
2022-10-23T08:23:00.338Z,11
2022-10-23T08:24:02.715Z,9
2022-10-23T08:25:05.295Z,9
2022-10-23T08:26:07.281Z,9
2022-10-23T08:27:09.339Z,7
2022-10-23T08:28:11.231Z,8
2022-10-23T08:29:13.357Z,8
2022-10-23T08:30:15.275Z,8
2022-10-23T08:31:17.263Z,9
2022-10-23T08:32:19.279Z,9
2022-10-23T08:33:21.201Z,8
2022-10-23T08:34:23.173Z,8
2022-10-23T08:35:24.220Z,7
2022-10-23T08:36:26.334Z,7
2022-10-23T08:37:28.255Z,7
2022-10-23T08:38:30.295Z,6
2022-10-23T08:39:32.295Z,6
2022-10-23T08:40:34.316Z,7
2022-10-23T08:41:36.236Z,8
2022-10-23T08:42:38.375Z,7
2022-10-23T08:43:40.396Z,7
2022-10-23T08:44:42.255Z,7
2022-10-23T08:45:44.295Z,6
2022-10-23T08:46:46.422Z,7
2022-10-23T08:47:48.318Z,8
2022-10-23T08:48:50.317Z,7
2022-10-23T08:49:52.252Z,6
2022-10-23T08:50:54.365Z,7
2022-10-23T08:51:56.395Z,6
2022-10-23T08:52:58.354Z,5
2022-10-23T08:54:00.355Z,5
2022-10-23T08:55:02.594Z,5
2022-10-23T08:56:04.503Z,6
2022-10-23T08:57:06.478Z,5
2022-10-23T08:58:08.319Z,5
2022-10-23T08:59:10.278Z,4
2022-10-23T09:00:17.363Z,4
2022-10-23T09:01:19.381Z,5
2022-10-23T09:02:21.393Z,5
2022-10-23T09:03:23.326Z,5
2022-10-23T09:04:25.356Z,5
2022-10-23T09:05:27.596Z,5
2022-10-23T09:06:29.486Z,5
2022-10-23T09:07:31.255Z,5
2022-10-23T09:08:33.415Z,5
2022-10-23T09:09:35.356Z,5
2022-10-23T09:10:37.414Z,5
2022-10-23T09:11:39.195Z,5
2022-10-23T09:12:41.414Z,5
2022-10-23T09:13:43.615Z,5
2022-10-23T09:14:45.455Z,4
2022-10-23T09:15:47.295Z,5
2022-10-23T09:16:49.235Z,5
2022-10-23T09:17:51.375Z,5
2022-10-23T09:18:53.332Z,5
2022-10-23T09:19:55.312Z,5
2022-10-23T09:20:57.548Z,4
2022-10-23T09:21:59.392Z,3
2022-10-23T09:23:01.515Z,4
2022-10-23T09:24:03.516Z,3
2022-10-23T09:25:07.215Z,3
2022-10-23T09:26:09.763Z,4
2022-10-23T09:27:11.437Z,4
2022-10-23T09:28:13.434Z,4
2022-10-23T09:29:15.296Z,4
2022-10-23T09:30:17.257Z,4
2022-10-23T09:31:19.239Z,4
2022-10-23T09:32:21.441Z,3
2022-10-23T09:33:23.615Z,4
2022-10-23T09:34:25.467Z,4
2022-10-23T09:35:27.354Z,3
2022-10-23T09:36:29.494Z,3
2022-10-23T09:37:31.454Z,3
2022-10-23T09:38:33.435Z,2
2022-10-23T09:39:35.659Z,3
2022-10-23T09:40:37.477Z,3
2022-10-23T09:41:39.730Z,2
2022-10-23T09:42:41.813Z,2
2022-10-23T09:43:43.315Z,3
2022-10-23T09:44:45.296Z,2
2022-10-23T09:45:47.375Z,3
2022-10-23T09:47:51.400Z,3
2022-10-23T09:48:53.275Z,3
2022-10-23T09:49:55.399Z,3
2022-10-23T09:50:57.314Z,3
2022-10-23T09:51:59.594Z,3
2022-10-23T09:53:01.839Z,3
2022-10-23T09:54:03.314Z,4
2022-10-23T09:55:05.394Z,4
2022-10-23T09:56:07.375Z,4
2022-10-23T09:57:09.639Z,4
2022-10-23T09:58:12.004Z,3
2022-10-23T09:59:13.346Z,3
2022-10-23T10:00:15.455Z,3
2022-10-23T10:01:17.431Z,3
2022-10-23T10:02:19.691Z,3
2022-10-23T10:03:21.706Z,3
2022-10-23T10:04:23.930Z,3
2022-10-23T10:05:25.408Z,4
2022-10-23T10:06:27.458Z,4
2022-10-23T10:07:30.303Z,4
2022-10-23T10:08:31.375Z,5
2022-10-23T10:09:33.338Z,6
2022-10-23T10:10:35.670Z,5
2022-10-23T10:11:37.394Z,4
2022-10-23T10:12:39.777Z,4
2022-10-23T10:13:41.327Z,4
2022-10-23T10:14:43.414Z,4
2022-10-23T10:15:45.316Z,4
2022-10-23T10:16:48.156Z,4
2022-10-23T10:17:49.375Z,4
2022-10-23T10:18:51.355Z,4
2022-10-23T10:19:53.434Z,4
2022-10-23T10:20:55.522Z,4
2022-10-23T10:21:57.477Z,4
2022-10-23T10:22:59.820Z,3
2022-10-23T10:24:01.856Z,3
2022-10-23T10:25:03.381Z,3
2022-10-23T10:26:06.043Z,4
2022-10-23T10:27:07.356Z,3
2022-10-23T10:28:09.355Z,4
2022-10-23T10:29:11.395Z,3
2022-10-23T10:30:13.436Z,4
2022-10-23T10:31:15.456Z,4
2022-10-23T10:32:17.394Z,5
2022-10-23T10:33:20.454Z,5
2022-10-23T10:34:22.655Z,5
2022-10-23T10:35:24.398Z,4
2022-10-23T10:37:28.436Z,4
2022-10-23T10:38:30.517Z,4
2022-10-23T10:39:32.600Z,4
2022-10-23T10:40:34.575Z,4
2022-10-23T10:41:36.420Z,4
2022-10-23T10:42:38.337Z,5
2022-10-23T10:43:40.415Z,4
2022-10-23T10:44:42.614Z,4
2022-10-23T10:45:44.478Z,4
2022-10-23T10:46:46.382Z,4
2022-10-23T10:47:48.894Z,3
2022-10-23T10:48:50.356Z,3
2022-10-23T10:49:52.561Z,4
2022-10-23T10:50:54.714Z,4
2022-10-23T10:51:56.778Z,4
2022-10-23T10:52:58.503Z,4
2022-10-23T10:54:00.515Z,3
2022-10-23T10:55:02.915Z,4
2022-10-23T10:56:04.666Z,5
2022-10-23T10:57:06.376Z,6
2022-10-23T10:58:08.435Z,6
2022-10-23T10:59:10.366Z,6
2022-10-23T11:00:12.416Z,4
2022-10-23T11:01:14.490Z,4
2022-10-23T11:02:16.411Z,5
2022-10-23T11:03:18.294Z,5
2022-10-23T11:04:20.527Z,5
2022-10-23T11:05:22.436Z,5
2022-10-23T11:06:24.371Z,4
2022-10-23T11:07:26.439Z,4
2022-10-23T11:08:28.336Z,4
2022-10-23T11:09:30.696Z,4
2022-10-23T11:10:32.763Z,4
2022-10-23T11:11:34.519Z,4
2022-10-23T11:12:36.417Z,3
2022-10-23T11:13:38.385Z,3
2022-10-23T11:14:40.397Z,3
2022-10-23T11:15:42.969Z,4
2022-10-23T11:16:44.400Z,3
2022-10-23T11:17:46.563Z,3
2022-10-23T11:18:48.355Z,4
2022-10-23T11:19:50.494Z,5
2022-10-23T11:20:53.275Z,4
2022-10-23T11:21:55.459Z,11
2022-10-23T11:22:57.611Z,6
2022-10-23T11:23:59.361Z,4
2022-10-23T11:25:01.464Z,4
2022-10-23T11:26:04.196Z,4
2022-10-23T11:27:05.570Z,5
2022-10-23T11:28:10.483Z,5
2022-10-23T11:29:09.415Z,6
2022-10-23T11:30:11.857Z,6
2022-10-23T11:31:13.435Z,6
2022-10-23T11:32:15.355Z,7
2022-10-23T11:33:17.395Z,6
2022-10-23T11:34:19.777Z,7
2022-10-23T11:35:21.436Z,6
2022-10-23T11:36:23.375Z,5
2022-10-23T11:37:25.934Z,6
2022-10-23T11:38:27.723Z,5
2022-10-23T11:39:29.442Z,6
2022-10-23T11:40:31.356Z,5
2022-10-23T11:41:33.315Z,5
2022-10-23T11:42:35.595Z,5
2022-10-23T11:43:37.717Z,5
2022-10-23T11:44:39.367Z,5
2022-10-23T11:45:41.394Z,5
2022-10-23T11:46:43.474Z,6
2022-10-23T11:47:45.356Z,7
2022-10-23T11:48:47.353Z,7
2022-10-23T11:49:49.344Z,6
2022-10-23T11:50:51.357Z,6
2022-10-23T11:51:53.876Z,7
2022-10-23T11:53:12.726Z,6
2022-10-23T11:53:57.498Z,5
2022-10-23T11:54:59.495Z,5
2022-10-23T11:56:01.436Z,4
2022-10-23T11:57:03.335Z,5
2022-10-23T11:58:05.415Z,4
2022-10-23T11:59:07.379Z,5
2022-10-23T12:00:09.574Z,5
2022-10-23T12:01:11.602Z,6
2022-10-23T12:02:13.426Z,6
2022-10-23T12:03:15.325Z,6
2022-10-23T12:04:17.957Z,7
2022-10-23T12:05:19.409Z,7
2022-10-23T12:06:21.835Z,7
2022-10-23T12:07:24.275Z,7
2022-10-23T12:08:26.453Z,7
2022-10-23T12:09:28.417Z,6
2022-10-23T12:10:30.495Z,6
2022-10-23T12:11:32.457Z,6
2022-10-23T12:12:34.435Z,6
2022-10-23T12:13:36.475Z,6
2022-10-23T12:14:38.421Z,7
2022-10-23T12:15:40.377Z,6
2022-10-23T12:16:42.436Z,6
2022-10-23T12:17:44.686Z,8
2022-10-23T12:18:46.416Z,6
2022-10-23T12:19:48.365Z,6
2022-10-23T12:20:50.404Z,6
2022-10-23T12:21:52.385Z,6
2022-10-23T12:22:54.684Z,6
2022-10-23T12:23:56.425Z,6
2022-10-23T12:24:58.389Z,6
2022-10-23T12:26:00.405Z,6
2022-10-23T12:27:02.377Z,6
2022-10-23T12:28:04.514Z,6
2022-10-23T12:29:06.436Z,6
2022-10-23T12:30:08.467Z,6
2022-10-23T12:31:10.367Z,6
2022-10-23T12:32:12.384Z,5
2022-10-23T12:33:14.416Z,5
2022-10-23T12:34:16.434Z,5
2022-10-23T12:35:18.394Z,5
2022-10-23T12:36:20.455Z,6
2022-10-23T12:37:22.382Z,7
2022-10-23T12:38:24.433Z,7
2022-10-23T12:39:26.394Z,6
2022-10-23T12:40:28.376Z,6
2022-10-23T12:41:30.373Z,7
2022-10-23T12:42:32.556Z,6
2022-10-23T12:43:34.414Z,7
2022-10-23T12:44:36.435Z,7
2022-10-23T12:45:38.483Z,6
2022-10-23T12:46:40.434Z,7
2022-10-23T12:47:42.419Z,7
2022-10-23T12:48:44.386Z,8
2022-10-23T12:49:46.444Z,7
2022-10-23T12:50:48.376Z,8
2022-10-23T12:51:50.410Z,8
2022-10-23T12:52:52.414Z,7
2022-10-23T12:53:54.401Z,7
2022-10-23T12:54:56.376Z,7
2022-10-23T12:57:00.388Z,6
2022-10-23T12:58:02.460Z,7
2022-10-23T12:59:04.378Z,7
2022-10-23T13:00:06.424Z,6
2022-10-23T13:01:08.573Z,6
2022-10-23T13:02:10.658Z,7
2022-10-23T13:03:13.124Z,7
2022-10-23T13:04:14.541Z,7
2022-10-23T13:05:16.394Z,7
2022-10-23T13:06:18.363Z,6
2022-10-23T13:07:20.564Z,6
2022-10-23T13:08:22.433Z,6
2022-10-23T13:09:24.358Z,7
2022-10-23T13:10:26.384Z,7
2022-10-23T13:11:28.474Z,6
2022-10-23T13:12:30.436Z,7
2022-10-23T13:13:32.314Z,6
2022-10-23T13:14:34.384Z,6
2022-10-23T13:15:36.504Z,6
2022-10-23T13:16:38.546Z,6
2022-10-23T13:17:41.025Z,6
2022-10-23T13:18:42.460Z,7
2022-10-23T13:19:44.426Z,6
2022-10-23T13:20:46.394Z,6
2022-10-23T13:21:48.446Z,7
2022-10-23T13:22:50.534Z,7
2022-10-23T13:23:52.484Z,6
2022-10-23T13:24:54.544Z,6
2022-10-23T13:25:56.504Z,6
2022-10-23T13:26:58.467Z,7
2022-10-23T13:28:00.405Z,7
2022-10-23T13:29:06.101Z,6
2022-10-23T13:30:06.060Z,7
2022-10-23T13:31:06.525Z,6
2022-10-23T13:32:08.513Z,7
2022-10-23T13:33:10.645Z,7
2022-10-23T13:34:12.905Z,7
2022-10-23T13:35:21.661Z,7
2022-10-23T13:36:16.539Z,6
2022-10-23T13:37:18.506Z,7
2022-10-23T13:38:20.445Z,7
2022-10-23T13:39:23.384Z,7
2022-10-23T13:40:25.468Z,8
2022-10-23T13:41:27.485Z,8
2022-10-23T13:42:29.450Z,8
2022-10-23T13:43:31.418Z,6
2022-10-23T13:44:33.542Z,6
2022-10-23T13:45:35.405Z,6
2022-10-23T13:46:37.874Z,6
2022-10-23T13:47:40.168Z,6
2022-10-23T13:48:41.445Z,6
2022-10-23T13:49:43.493Z,7
2022-10-23T13:50:45.413Z,7
2022-10-23T13:51:47.353Z,6
2022-10-23T13:52:49.453Z,5
2022-10-23T13:53:51.406Z,6
2022-10-23T13:54:53.401Z,6
2022-10-23T13:55:57.795Z,4
2022-10-23T13:56:57.465Z,4
2022-10-23T13:57:59.494Z,4
2022-10-23T13:59:01.467Z,4
2022-10-23T14:00:03.484Z,4
2022-10-23T14:01:05.763Z,4
2022-10-23T14:02:07.673Z,4
2022-10-23T14:03:09.572Z,4
2022-10-23T14:04:11.552Z,4
2022-10-23T14:05:13.505Z,5
2022-10-23T14:06:15.495Z,7
2022-10-23T14:07:17.633Z,7
2022-10-23T14:08:19.469Z,5
2022-10-23T14:09:21.505Z,5
2022-10-23T14:10:25.595Z,7
2022-10-23T14:11:25.625Z,6
2022-10-23T14:12:27.734Z,6
2022-10-23T14:13:31.495Z,5
2022-10-23T14:14:33.653Z,6
2022-10-23T14:15:35.407Z,5
2022-10-23T14:16:37.426Z,5
2022-10-23T14:17:39.423Z,6
2022-10-23T14:47:48.120Z,4
2022-10-23T14:49:07.342Z,5
2022-10-23T14:50:09.035Z,5
2022-10-23T14:51:10.910Z,4
2022-10-23T14:52:11.951Z,4
2022-10-23T14:53:12.932Z,4
2022-10-23T14:54:14.974Z,3
2022-10-23T14:55:16.036Z,4
2022-10-23T14:56:17.931Z,3
2022-10-23T14:57:18.930Z,3
2022-10-23T14:58:19.953Z,3
2022-10-23T14:59:20.992Z,3
2022-10-23T15:00:22.100Z,4
2022-10-23T15:01:24.216Z,4
2022-10-23T15:02:26.035Z,3
2022-10-23T15:03:27.958Z,4
2022-10-23T15:04:28.912Z,4
2022-10-23T15:05:29.971Z,3
2022-10-23T15:06:30.951Z,4
2022-10-23T15:07:31.941Z,3
2022-10-23T15:08:32.910Z,4
2022-10-23T15:09:33.915Z,5
2022-10-23T15:10:34.934Z,5
2022-10-23T15:11:35.914Z,3
2022-10-23T15:12:36.906Z,5
2022-10-23T15:13:37.935Z,4
2022-10-23T15:14:38.902Z,5
2022-10-23T15:15:39.898Z,5
2022-10-23T15:16:42.966Z,4
2022-10-23T15:17:44.977Z,4
2022-10-23T15:18:46.402Z,3
2022-10-23T15:19:47.932Z,4
2022-10-23T15:20:48.951Z,4
2022-10-23T15:21:49.874Z,4
2022-10-23T15:22:50.954Z,4
2022-10-23T15:23:51.908Z,4
2022-10-23T15:24:52.927Z,4
2022-10-23T15:25:54.932Z,3
2022-10-23T15:26:56.060Z,3
2022-10-23T15:27:57.986Z,3
2022-10-23T15:28:58.955Z,3
2022-10-23T15:29:59.928Z,4
2022-10-23T15:31:00.991Z,4
2022-10-23T15:32:01.902Z,5
2022-10-23T15:33:02.927Z,8
2022-10-23T15:34:04.068Z,9
2022-10-23T15:35:05.024Z,8
2022-10-23T15:36:05.915Z,8